createdAt,value
2016-07-28T00:00:17.243Z,0
2016-07-28T00:01:17.229Z,0
2016-07-28T00:02:17.232Z,0
2016-07-28T00:03:17.233Z,0
2016-07-28T00:04:17.926Z,0
2016-07-28T00:05:17.253Z,0
2016-07-28T00:06:17.236Z,0
2016-07-28T00:07:17.229Z,0
2016-07-28T00:08:19.209Z,0
2016-07-28T00:09:20.467Z,0
2016-07-28T00:10:17.608Z,0
2016-07-28T00:12:17.699Z,0
2016-07-28T00:13:18.025Z,0
2016-07-28T00:14:17.279Z,0
2016-07-28T00:15:17.225Z,0
2016-07-28T00:16:17.218Z,0
2016-07-28T00:17:18.750Z,0
2016-07-28T00:18:18.577Z,0
2016-07-28T00:19:19.660Z,0
2016-07-28T00:20:18.942Z,0
2016-07-28T00:21:17.283Z,0
2016-07-28T00:22:18.086Z,0
2016-07-28T00:23:17.787Z,0
2016-07-28T00:24:17.217Z,0
2016-07-28T00:25:17.297Z,0
2016-07-28T00:26:17.215Z,0
2016-07-28T00:27:17.214Z,0
2016-07-28T00:28:17.209Z,0
2016-07-28T00:29:17.210Z,0
2016-07-28T00:30:17.208Z,0
2016-07-28T00:31:32.125Z,0
2016-07-28T00:32:32.273Z,0
2016-07-28T00:33:17.958Z,0
2016-07-28T00:34:17.360Z,0
2016-07-28T00:35:18.554Z,0
2016-07-28T00:36:17.204Z,0
2016-07-28T00:37:17.209Z,0
2016-07-28T00:38:17.508Z,0
2016-07-28T00:39:17.198Z,0
2016-07-28T00:40:18.456Z,0
2016-07-28T00:41:32.109Z,0
2016-07-28T00:42:17.194Z,0
2016-07-28T00:43:17.193Z,0
2016-07-28T00:44:32.110Z,0
2016-07-28T00:45:17.200Z,0
2016-07-28T00:46:17.198Z,0
2016-07-28T00:47:17.201Z,0
2016-07-28T00:48:17.192Z,0
2016-07-28T00:49:17.189Z,0
2016-07-28T00:50:17.289Z,0
2016-07-28T00:51:17.192Z,0
2016-07-28T00:52:17.183Z,0
2016-07-28T00:53:17.193Z,0
2016-07-28T00:54:17.191Z,0
2016-07-28T00:55:17.191Z,0
2016-07-28T00:56:17.181Z,0
2016-07-28T00:57:17.183Z,0
2016-07-28T00:58:17.180Z,0
2016-07-28T00:59:17.186Z,0
2016-07-28T01:00:17.185Z,0
2016-07-28T01:01:17.198Z,0
2016-07-28T01:02:17.175Z,0
2016-07-28T01:03:17.191Z,0
2016-07-28T01:04:17.180Z,0
2016-07-28T01:05:17.179Z,0
2016-07-28T01:06:17.188Z,0
2016-07-28T01:07:17.178Z,0
2016-07-28T01:08:17.170Z,0
2016-07-28T01:09:17.182Z,0
2016-07-28T01:10:17.177Z,0
2016-07-28T01:11:17.170Z,0
2016-07-28T01:12:17.173Z,0
2016-07-28T01:13:17.177Z,0
2016-07-28T01:14:17.171Z,0
2016-07-28T01:15:17.175Z,0
2016-07-28T01:16:17.167Z,0
2016-07-28T01:17:17.175Z,0
2016-07-28T01:18:17.167Z,0
2016-07-28T01:19:17.169Z,0
2016-07-28T01:20:17.165Z,0
2016-07-28T01:21:17.162Z,0
2016-07-28T01:22:17.166Z,0
2016-07-28T01:23:17.168Z,0
2016-07-28T01:24:17.160Z,0
2016-07-28T01:25:17.166Z,0
2016-07-28T01:27:18.681Z,0
2016-07-28T01:28:20.170Z,0
2016-07-28T01:29:17.159Z,0
2016-07-28T01:30:18.551Z,0
2016-07-28T01:31:17.158Z,0
2016-07-28T01:32:17.163Z,0
2016-07-28T01:33:17.159Z,0
2016-07-28T01:34:17.167Z,0
2016-07-28T01:35:19.295Z,0
2016-07-28T01:37:18.597Z,0
2016-07-28T01:38:18.881Z,0
2016-07-28T01:39:17.840Z,0
2016-07-28T01:40:17.152Z,0
2016-07-28T01:41:17.370Z,0
2016-07-28T01:42:17.345Z,0
2016-07-28T01:43:17.150Z,0
2016-07-28T01:44:17.152Z,0
2016-07-28T01:45:17.153Z,0
2016-07-28T01:46:17.156Z,0
2016-07-28T01:47:17.162Z,0
2016-07-28T01:48:17.143Z,0
2016-07-28T01:49:19.400Z,0
2016-07-28T01:50:17.701Z,0
2016-07-28T01:51:17.150Z,0
2016-07-28T01:52:17.492Z,0
2016-07-28T01:53:17.492Z,0
2016-07-28T01:54:18.350Z,0
2016-07-28T01:55:17.136Z,0
2016-07-28T01:56:17.145Z,0
2016-07-28T01:57:17.136Z,0
2016-07-28T01:58:32.606Z,0
2016-07-28T01:59:17.785Z,0
2016-07-28T02:00:47.572Z,0
2016-07-28T02:01:17.139Z,0
2016-07-28T02:02:17.489Z,0
2016-07-28T02:03:17.143Z,0
2016-07-28T02:04:17.431Z,0
2016-07-28T02:05:17.441Z,0
2016-07-28T02:06:17.130Z,0
2016-07-28T02:07:17.124Z,0
2016-07-28T02:08:17.131Z,0
2016-07-28T02:09:17.123Z,0
2016-07-28T02:10:17.134Z,0
2016-07-28T02:11:17.131Z,0
2016-07-28T02:12:17.132Z,0
2016-07-28T02:13:17.125Z,0
2016-07-28T02:14:17.120Z,0
2016-07-28T02:15:17.119Z,0
2016-07-28T02:16:17.122Z,0
2016-07-28T02:17:17.131Z,0
2016-07-28T02:18:17.120Z,0
2016-07-28T02:19:17.118Z,0
2016-07-28T02:20:17.120Z,0
2016-07-28T02:21:17.814Z,0
2016-07-28T02:22:17.121Z,0
2016-07-28T02:23:17.117Z,0
2016-07-28T02:24:17.130Z,0
2016-07-28T02:25:17.127Z,0
2016-07-28T02:26:17.115Z,0
2016-07-28T02:27:17.114Z,0
2016-07-28T02:28:17.114Z,0
2016-07-28T02:29:17.118Z,0
2016-07-28T02:30:17.112Z,0
2016-07-28T02:31:17.116Z,0
2016-07-28T02:32:17.119Z,0
2016-07-28T02:33:17.109Z,0
2016-07-28T02:34:17.106Z,0
2016-07-28T02:35:17.109Z,0
2016-07-28T02:36:17.108Z,0
2016-07-28T02:37:17.106Z,0
2016-07-28T02:38:17.103Z,0
2016-07-28T02:39:17.103Z,0
2016-07-28T02:40:17.109Z,0
2016-07-28T02:41:17.102Z,0
2016-07-28T02:42:17.103Z,0
2016-07-28T02:43:17.098Z,4
2016-07-28T02:44:18.623Z,4
2016-07-28T02:46:19.093Z,0
2016-07-28T02:47:17.106Z,4
2016-07-28T02:48:17.158Z,4
2016-07-28T02:49:18.512Z,4
2016-07-28T02:50:17.328Z,8
2016-07-28T02:51:17.310Z,4
2016-07-28T02:52:17.103Z,8
2016-07-28T02:53:17.090Z,8
2016-07-28T02:54:19.441Z,8
2016-07-28T02:55:19.237Z,16
2016-07-28T02:56:18.535Z,12
2016-07-28T02:57:18.487Z,16
2016-07-28T02:58:18.148Z,16
2016-07-28T02:59:17.345Z,16
2016-07-28T03:00:17.090Z,20
2016-07-28T03:01:17.091Z,20
2016-07-28T03:02:17.096Z,28
2016-07-28T03:03:17.081Z,32
2016-07-28T03:04:17.778Z,36
2016-07-28T03:05:17.099Z,36
2016-07-28T03:06:17.083Z,44
2016-07-28T03:07:17.086Z,48
2016-07-28T03:08:32.446Z,60
2016-07-28T03:10:17.184Z,64
2016-07-28T03:13:17.082Z,72
2016-07-28T03:14:17.082Z,76
2016-07-28T03:15:17.084Z,88
2016-07-28T03:16:17.076Z,96
2016-07-28T03:17:32.390Z,116
2016-07-28T03:18:32.990Z,124
2016-07-28T03:19:32.593Z,132
2016-07-28T03:20:17.480Z,144
2016-07-28T03:21:17.833Z,164
2016-07-28T03:22:17.086Z,180
2016-07-28T03:23:17.066Z,208
2016-07-28T03:24:17.071Z,232
2016-07-28T03:25:17.068Z,252
2016-07-28T03:26:17.081Z,280
2016-07-28T03:27:17.062Z,300
2016-07-28T03:28:17.070Z,308
2016-07-28T03:29:17.061Z,332
2016-07-28T03:30:17.062Z,376
2016-07-28T03:31:17.068Z,416
2016-07-28T03:32:17.071Z,440
2016-07-28T03:33:17.067Z,444
2016-07-28T03:34:17.066Z,444
2016-07-28T03:35:17.070Z,452
2016-07-28T03:36:17.060Z,464
2016-07-28T03:37:17.063Z,492
2016-07-28T03:38:17.063Z,520
2016-07-28T03:39:17.058Z,576
2016-07-28T03:40:17.056Z,632
2016-07-28T03:41:17.052Z,656
2016-07-28T03:42:17.058Z,684
2016-07-28T03:43:17.078Z,736
2016-07-28T03:44:17.057Z,796
2016-07-28T03:45:17.055Z,884
2016-07-28T03:46:17.057Z,968
2016-07-28T03:47:17.052Z,1048
2016-07-28T03:48:17.056Z,1128
2016-07-28T03:49:17.048Z,1216
2016-07-28T03:50:17.047Z,1320
2016-07-28T03:51:17.054Z,1456
2016-07-28T03:52:17.050Z,1656
2016-07-28T03:53:17.049Z,1872
2016-07-28T03:54:17.049Z,2028
2016-07-28T03:55:17.043Z,2056
2016-07-28T03:56:17.044Z,2056
2016-07-28T03:58:17.041Z,2008
2016-07-28T03:59:17.040Z,1944
2016-07-28T04:00:17.043Z,1888
2016-07-28T04:01:17.044Z,1940
2016-07-28T04:02:17.040Z,2008
2016-07-28T04:03:17.035Z,2096
2016-07-28T04:04:17.038Z,2220
2016-07-28T04:05:17.044Z,2268
2016-07-28T04:06:17.040Z,2320
2016-07-28T04:07:17.038Z,2304
2016-07-28T04:08:17.041Z,2456
2016-07-28T04:09:17.046Z,2560
2016-07-28T04:10:17.050Z,2708
2016-07-28T04:11:17.033Z,2740
2016-07-28T04:13:17.033Z,2596
2016-07-28T04:14:17.030Z,2724
2016-07-28T04:15:17.036Z,2500
2016-07-28T04:16:17.028Z,2796
2016-07-28T04:17:17.034Z,2932
2016-07-28T04:18:17.039Z,3156
2016-07-28T04:19:17.028Z,3264
2016-07-28T04:20:17.035Z,3508
2016-07-28T04:21:17.028Z,3712
2016-07-28T04:22:17.039Z,4064
2016-07-28T04:23:17.035Z,4256
2016-07-28T04:24:17.025Z,4196
2016-07-28T04:25:17.034Z,4224
2016-07-28T04:26:32.645Z,4268
2016-07-28T04:27:31.959Z,4544
2016-07-28T04:28:17.082Z,4572
2016-07-28T04:29:31.950Z,4824
2016-07-28T04:30:17.027Z,4964
2016-07-28T04:31:17.031Z,5100
2016-07-28T04:32:17.038Z,5828
2016-07-28T04:33:17.027Z,5968
2016-07-28T04:34:17.022Z,6212
2016-07-28T04:35:17.877Z,6660
2016-07-28T04:36:18.529Z,6808
2016-07-28T04:37:17.030Z,7160
2016-07-28T04:38:31.946Z,7400
2016-07-28T04:39:17.033Z,7688
2016-07-28T04:40:17.528Z,7196
2016-07-28T04:41:17.029Z,6940
2016-07-28T04:42:17.029Z,6436
2016-07-28T04:43:17.728Z,7540
2016-07-28T04:44:17.027Z,7224
2016-07-28T04:45:17.033Z,7848
2016-07-28T04:46:17.032Z,8608
2016-07-28T04:47:17.026Z,8852
2016-07-28T04:48:17.031Z,10624
2016-07-28T04:49:17.040Z,9908
2016-07-28T04:50:17.031Z,9784
2016-07-28T04:51:17.031Z,9256
2016-07-28T04:52:17.030Z,9396
2016-07-28T04:53:17.029Z,10204
2016-07-28T04:54:17.026Z,10416
2016-07-28T04:55:17.031Z,10744
2016-07-28T04:56:17.032Z,11088
2016-07-28T04:57:17.033Z,13204
2016-07-28T04:58:17.045Z,12864
2016-07-28T04:59:17.038Z,12844
2016-07-28T05:00:17.039Z,12536
2016-07-28T05:01:17.046Z,14112
2016-07-28T05:02:17.040Z,12936
2016-07-28T05:03:19.274Z,11992
2016-07-28T05:04:19.143Z,12352
2016-07-28T05:05:17.575Z,11656
2016-07-28T05:06:19.101Z,10772
2016-07-28T05:07:17.054Z,10176
2016-07-28T05:08:17.053Z,12320
2016-07-28T05:09:17.067Z,14224
2016-07-28T05:10:17.058Z,14848
2016-07-28T05:11:17.111Z,16192
2016-07-28T05:12:18.587Z,16608
2016-07-28T05:13:19.190Z,16832
2016-07-28T05:14:19.633Z,16416
2016-07-28T05:15:18.470Z,17120
2016-07-28T05:16:17.074Z,17024
2016-07-28T05:17:17.080Z,16768
2016-07-28T05:18:17.698Z,17408
2016-07-28T05:19:17.088Z,18304
2016-07-28T05:20:17.091Z,19232
2016-07-28T05:21:17.097Z,19552
2016-07-28T05:22:17.102Z,18784
2016-07-28T05:23:17.115Z,18080
2016-07-28T05:24:17.122Z,17472
2016-07-28T05:25:17.122Z,17120
2016-07-28T05:26:17.119Z,18272
2016-07-28T05:27:17.128Z,19104
2016-07-28T05:28:17.127Z,19168
2016-07-28T05:29:17.139Z,19360
2016-07-28T05:30:17.140Z,19200
2016-07-28T05:31:17.156Z,18144
2016-07-28T05:32:17.167Z,21152
2016-07-28T05:33:17.160Z,22432
2016-07-28T05:34:17.175Z,22208
2016-07-28T05:35:17.189Z,22336
2016-07-28T05:36:17.196Z,22048
2016-07-28T05:37:17.201Z,21856
2016-07-28T05:38:17.209Z,22816
2016-07-28T05:39:17.214Z,25088
2016-07-28T05:40:17.213Z,25952
2016-07-28T05:41:17.231Z,25216
2016-07-28T05:42:17.234Z,28416
2016-07-28T05:43:17.241Z,31072
2016-07-28T05:44:33.075Z,31008
2016-07-28T05:45:17.819Z,33056
2016-07-28T05:46:17.266Z,31136
2016-07-28T05:47:17.282Z,23616
2016-07-28T05:48:18.339Z,25504
2016-07-28T05:49:17.299Z,28832
2016-07-28T05:51:17.329Z,28960
2016-07-28T05:52:17.330Z,29440
2016-07-28T05:53:17.992Z,30432
2016-07-28T05:54:33.373Z,29760
2016-07-28T05:55:32.678Z,30496
2016-07-28T05:56:17.363Z,30912
2016-07-28T05:57:17.947Z,29984
2016-07-28T05:58:17.883Z,30464
2016-07-28T05:59:18.198Z,31712
2016-07-28T06:00:17.417Z,31456
2016-07-28T06:01:17.416Z,31904
2016-07-28T06:02:17.430Z,32640
2016-07-28T06:03:17.443Z,32096
2016-07-28T06:04:17.454Z,32384
2016-07-28T06:05:17.458Z,34144
2016-07-28T06:06:17.475Z,33120
2016-07-28T06:07:17.496Z,29216
2016-07-28T06:08:17.501Z,29312
2016-07-28T06:09:17.513Z,31648
2016-07-28T06:10:17.523Z,32032
2016-07-28T06:11:17.541Z,32544
2016-07-28T06:12:17.550Z,33568
2016-07-28T06:13:17.571Z,31296
2016-07-28T06:14:17.576Z,32288
2016-07-28T06:15:17.590Z,33824
2016-07-28T06:16:17.606Z,33728
2016-07-28T06:17:17.604Z,31136
2016-07-28T06:18:17.634Z,32992
2016-07-28T06:19:17.627Z,34144
2016-07-28T06:20:17.654Z,38976
2016-07-28T06:21:18.515Z,41152
2016-07-28T06:22:19.592Z,41440
2016-07-28T06:23:20.576Z,40672
2016-07-28T06:24:19.767Z,41536
2016-07-28T06:25:17.812Z,42816
2016-07-28T06:26:18.397Z,42784
2016-07-28T06:27:17.891Z,41248
2016-07-28T06:28:17.760Z,40960
2016-07-28T06:29:17.768Z,42752
2016-07-28T06:30:20.159Z,44864
2016-07-28T06:31:17.934Z,43488
2016-07-28T06:32:19.440Z,42816
2016-07-28T06:33:19.156Z,43168
2016-07-28T06:34:17.837Z,43872
2016-07-28T06:35:18.791Z,43648
2016-07-28T06:36:18.690Z,44320
2016-07-28T06:37:17.912Z,44704
2016-07-28T06:38:17.903Z,44864
2016-07-28T06:39:17.924Z,45344
2016-07-28T06:40:17.930Z,45792
2016-07-28T06:41:17.956Z,44384
2016-07-28T06:42:17.967Z,45280
2016-07-28T06:43:17.996Z,46848
2016-07-28T06:44:17.993Z,47904
2016-07-28T06:45:18.733Z,47168
2016-07-28T06:46:18.032Z,48000
2016-07-28T06:47:18.055Z,48832
2016-07-28T06:48:18.057Z,50080
2016-07-28T06:49:18.075Z,52224
2016-07-28T06:50:18.103Z,53600
2016-07-28T06:51:18.107Z,54016
2016-07-28T06:52:18.127Z,52672
2016-07-28T06:53:18.150Z,52768
2016-07-28T06:54:18.167Z,52192
2016-07-28T06:55:18.181Z,52640
2016-07-28T06:56:18.203Z,52864
2016-07-28T06:57:18.234Z,53472
2016-07-28T06:58:18.231Z,52960
2016-07-28T06:59:18.255Z,51872
2016-07-28T07:00:18.278Z,53056
2016-07-28T07:01:18.294Z,56384
2016-07-28T07:02:20.307Z,58560
2016-07-28T07:03:18.979Z,58720
2016-07-28T07:04:20.167Z,56320
2016-07-28T07:05:18.360Z,54976
2016-07-28T07:06:18.376Z,55264
2016-07-28T07:07:19.504Z,57024
2016-07-28T07:08:18.425Z,59392
2016-07-28T07:09:18.444Z,59328
2016-07-28T07:10:18.455Z,58080
2016-07-28T07:11:19.535Z,59424
2016-07-28T07:12:19.649Z,63712
2016-07-28T07:14:18.534Z,67392
2016-07-28T07:15:18.799Z,65184
2016-07-28T07:16:18.571Z,61632
2016-07-28T07:17:18.697Z,62176
2016-07-28T07:18:18.607Z,65152
2016-07-28T07:19:18.631Z,68832
2016-07-28T07:20:18.645Z,68480
2016-07-28T07:21:18.666Z,65408
2016-07-28T07:22:18.694Z,62912
2016-07-28T07:23:18.712Z,65632
2016-07-28T07:24:18.724Z,66848
2016-07-28T07:25:18.748Z,66816
2016-07-28T07:26:18.764Z,68864
2016-07-28T07:27:18.790Z,71264
2016-07-28T07:28:18.804Z,71104
2016-07-28T07:29:18.833Z,63776
2016-07-28T07:30:18.835Z,60736
2016-07-28T07:31:18.865Z,63776
2016-07-28T07:32:18.879Z,67392
2016-07-28T07:33:18.903Z,69056
2016-07-28T07:34:18.923Z,63168
2016-07-28T07:35:18.934Z,58816
2016-07-28T07:36:18.956Z,68128
2016-07-28T07:37:18.978Z,71520
2016-07-28T07:38:18.993Z,70080
2016-07-28T07:39:21.656Z,68736
2016-07-28T07:40:22.354Z,65568
2016-07-28T07:41:20.563Z,70944
2016-07-28T07:42:20.673Z,68480
2016-07-28T07:43:19.682Z,55680
2016-07-28T07:44:19.818Z,72576
2016-07-28T07:45:19.138Z,74688
2016-07-28T07:46:19.160Z,71616
2016-07-28T07:47:19.176Z,66816
2016-07-28T07:48:19.977Z,20608
2016-07-28T07:49:22.805Z,19264
2016-07-28T07:50:21.627Z,24352
2016-07-28T07:51:20.267Z,60992
2016-07-28T07:52:19.702Z,40032
2016-07-28T07:53:19.303Z,59008
2016-07-28T07:54:19.812Z,65408
2016-07-28T07:55:20.028Z,27552
2016-07-28T07:56:19.362Z,25248
2016-07-28T07:57:19.375Z,20128
2016-07-28T07:58:19.396Z,59968
2016-07-28T07:59:19.409Z,17696
2016-07-28T08:00:19.430Z,19904
2016-07-28T08:01:19.443Z,17984
2016-07-28T08:02:19.471Z,16764
2016-07-28T08:03:19.492Z,34048
2016-07-28T08:04:19.501Z,17380
2016-07-28T08:05:19.519Z,50784
2016-07-28T08:06:19.535Z,59136
2016-07-28T08:07:19.550Z,57536
2016-07-28T08:08:19.567Z,58528
2016-07-28T08:09:19.574Z,16656
2016-07-28T08:10:19.590Z,16524
2016-07-28T08:11:19.608Z,17792
2016-07-28T08:12:19.624Z,18752
2016-07-28T08:13:19.642Z,19520
2016-07-28T08:14:19.659Z,19648
2016-07-28T08:15:19.666Z,21536
2016-07-28T08:16:19.688Z,20192
2016-07-28T08:17:19.707Z,58752
2016-07-28T08:18:19.711Z,66464
2016-07-28T08:19:19.725Z,65472
2016-07-28T08:20:19.741Z,23616
2016-07-28T08:21:35.522Z,17376
2016-07-28T08:22:36.450Z,16704
2016-07-28T08:23:19.787Z,16432
2016-07-28T08:25:20.614Z,13524
2016-07-28T08:26:19.828Z,16408
2016-07-28T08:27:19.841Z,20544
2016-07-28T08:28:19.848Z,54432
2016-07-28T08:29:19.860Z,61888
2016-07-28T08:30:35.340Z,52960
2016-07-28T08:31:20.787Z,61760
2016-07-28T08:32:19.899Z,24608
2016-07-28T08:33:21.552Z,18688
2016-07-28T08:34:20.620Z,26688
2016-07-28T08:35:19.935Z,23104
2016-07-28T08:36:20.097Z,18240
2016-07-28T08:37:19.955Z,16412
2016-07-28T08:38:19.979Z,57312
2016-07-28T08:39:19.985Z,23584
2016-07-28T08:40:19.982Z,21152
2016-07-28T08:41:19.996Z,28256
2016-07-28T08:42:20.009Z,73984
2016-07-28T08:44:20.040Z,29920
2016-07-28T08:45:20.041Z,72480
2016-07-28T08:46:20.061Z,64576
2016-07-28T08:47:20.062Z,60256
2016-07-28T08:48:20.082Z,63744
2016-07-28T08:49:20.085Z,64640
2016-07-28T08:50:20.097Z,61760
2016-07-28T08:51:20.123Z,65824
2016-07-28T08:52:20.131Z,60128
2016-07-28T08:53:20.140Z,22624
2016-07-28T08:54:20.155Z,21248
2016-07-28T08:55:20.182Z,19552
2016-07-28T08:56:20.170Z,23232
2016-07-28T08:57:20.202Z,24352
2016-07-28T08:58:23.427Z,24448
2016-07-28T08:59:22.762Z,26304
2016-07-28T09:00:21.944Z,24672
2016-07-28T09:01:21.761Z,22816
2016-07-28T09:02:21.382Z,22656
2016-07-28T09:03:20.476Z,20128
2016-07-28T09:04:20.767Z,20096
2016-07-28T09:05:20.285Z,19776
2016-07-28T09:06:20.303Z,17600
2016-07-28T09:07:21.961Z,17856
2016-07-28T09:08:22.258Z,21152
2016-07-28T09:09:21.924Z,16012
2016-07-28T09:10:22.153Z,13580
2016-07-28T09:11:20.350Z,12452
2016-07-28T09:12:20.376Z,13080
2016-07-28T09:14:20.384Z,21024
2016-07-28T09:15:20.383Z,25344
2016-07-28T09:16:20.400Z,24480
2016-07-28T09:17:20.419Z,22112
2016-07-28T09:18:20.421Z,19104
2016-07-28T09:19:20.427Z,16192
2016-07-28T09:20:20.437Z,13304
2016-07-28T09:21:20.448Z,11580
2016-07-28T09:22:20.470Z,11192
2016-07-28T09:23:21.167Z,12676
2016-07-28T09:24:20.478Z,15368
2016-07-28T09:25:20.481Z,19328
2016-07-28T09:26:20.500Z,21152
2016-07-28T09:27:20.509Z,21696
2016-07-28T09:28:20.512Z,21888
2016-07-28T09:29:20.525Z,21888
2016-07-28T09:30:20.552Z,20224
2016-07-28T09:31:20.536Z,19808
2016-07-28T09:32:20.548Z,16904
2016-07-28T09:33:20.565Z,15964
2016-07-28T09:34:20.567Z,15284
2016-07-28T09:35:20.584Z,13124
2016-07-28T09:36:20.590Z,11664
2016-07-28T09:37:20.595Z,11508
2016-07-28T09:38:20.616Z,12952
2016-07-28T09:40:51.415Z,22752
2016-07-28T09:41:22.041Z,23392
2016-07-28T09:42:20.840Z,24800
2016-07-28T09:44:20.660Z,21280
2016-07-28T09:45:20.967Z,21952
2016-07-28T09:46:20.679Z,24320
2016-07-28T09:47:20.683Z,24800
2016-07-28T09:48:36.413Z,23104
2016-07-28T09:49:21.754Z,23392
2016-07-28T09:50:36.881Z,23104
2016-07-28T09:51:35.641Z,21856
2016-07-28T09:52:20.822Z,20672
2016-07-28T09:53:21.546Z,19520
2016-07-28T09:54:20.764Z,18784
2016-07-28T09:55:20.758Z,19424
2016-07-28T09:56:20.769Z,19680
2016-07-28T09:57:20.767Z,22176
2016-07-28T09:59:20.795Z,23392
2016-07-28T10:00:20.797Z,21664
2016-07-28T10:01:20.797Z,20832
2016-07-28T10:02:20.816Z,21856
2016-07-28T10:03:20.812Z,22848
2016-07-28T10:04:20.831Z,24032
2016-07-28T10:05:20.845Z,24384
2016-07-28T10:06:20.855Z,24064
2016-07-28T10:07:20.857Z,22528
2016-07-28T10:08:20.869Z,21152
2016-07-28T10:09:20.886Z,21664
2016-07-28T10:10:20.881Z,23328
2016-07-28T10:11:20.890Z,22176
2016-07-28T10:12:21.596Z,18912
2016-07-28T10:13:20.915Z,16576
2016-07-28T10:14:20.920Z,15484
2016-07-28T10:15:20.934Z,16768
2016-07-28T10:16:23.976Z,18528
2016-07-28T10:17:22.599Z,20736
2016-07-28T10:18:21.242Z,23680
2016-07-28T10:19:22.832Z,23552
2016-07-28T10:20:20.969Z,23264
2016-07-28T10:21:20.984Z,22464
2016-07-28T10:22:20.990Z,20864
2016-07-28T10:23:21.283Z,19104
2016-07-28T10:24:21.069Z,18592
2016-07-28T10:25:22.555Z,19424
2016-07-28T10:26:23.782Z,19616
2016-07-28T10:27:21.040Z,18240
2016-07-28T10:29:21.048Z,12072
2016-07-28T10:30:21.054Z,9748
2016-07-28T10:31:21.073Z,8444
2016-07-28T10:32:21.102Z,7792
2016-07-28T10:34:21.096Z,6624
2016-07-28T10:35:21.109Z,6072
2016-07-28T10:36:21.114Z,5804
2016-07-28T10:37:21.132Z,5792
2016-07-28T10:38:21.138Z,6208
2016-07-28T10:39:21.135Z,6596
2016-07-28T10:40:21.139Z,6808
2016-07-28T10:41:21.160Z,6620
2016-07-28T10:42:21.165Z,6912
2016-07-28T10:43:21.172Z,7672
2016-07-28T10:44:21.173Z,8180
2016-07-28T10:45:21.188Z,8204
2016-07-28T10:46:21.193Z,7868
2016-07-28T10:47:21.891Z,7564
2016-07-28T10:48:21.219Z,7364
2016-07-28T10:49:21.220Z,7460
2016-07-28T10:50:21.224Z,7796
2016-07-28T10:51:21.335Z,8464
2016-07-28T10:52:21.235Z,9412
2016-07-28T10:53:21.249Z,10452
2016-07-28T10:54:21.258Z,11600
2016-07-28T10:55:21.253Z,12540
2016-07-28T10:56:21.275Z,13372
2016-07-28T10:57:36.991Z,14884
2016-07-28T10:58:21.790Z,16192
2016-07-28T10:59:22.442Z,18112
2016-07-28T11:00:21.840Z,19072
2016-07-28T11:01:21.302Z,19840
2016-07-28T11:02:21.524Z,21216
2016-07-28T11:03:21.329Z,22272
2016-07-28T11:04:21.332Z,22208
2016-07-28T11:05:21.332Z,20448
2016-07-28T11:06:37.307Z,19168
2016-07-28T11:07:36.462Z,19456
2016-07-28T11:10:21.620Z,13564
2016-07-28T11:11:21.370Z,11948
2016-07-28T11:12:21.386Z,10244
2016-07-28T11:13:21.392Z,9092
2016-07-28T11:14:21.497Z,9068
2016-07-28T11:15:21.403Z,9816
2016-07-28T11:16:21.415Z,10812
2016-07-28T11:17:21.415Z,11976
2016-07-28T11:18:21.420Z,12720
2016-07-28T11:19:21.420Z,13116
2016-07-28T11:20:21.435Z,13164
2016-07-28T11:21:21.450Z,13076
2016-07-28T11:22:21.457Z,12800
2016-07-28T11:23:21.457Z,12364
2016-07-28T11:24:21.468Z,12016
2016-07-28T11:25:21.490Z,11780
2016-07-28T11:26:21.480Z,11708
2016-07-28T11:27:21.498Z,11876
2016-07-28T11:28:22.194Z,12052
2016-07-28T11:29:21.514Z,12088
2016-07-28T11:30:21.535Z,12276
2016-07-28T11:31:21.522Z,12640
2016-07-28T11:32:21.536Z,13228
2016-07-28T11:33:21.521Z,13972
2016-07-28T11:34:24.664Z,14836
2016-07-28T11:36:23.339Z,16032
2016-07-28T11:37:22.582Z,16640
2016-07-28T11:38:21.562Z,17536
2016-07-28T11:39:21.565Z,18272
2016-07-28T11:40:21.576Z,18656
2016-07-28T11:41:21.821Z,19040
2016-07-28T11:42:21.585Z,19488
2016-07-28T11:44:24.989Z,20256
2016-07-28T11:45:23.023Z,21024
2016-07-28T11:46:22.716Z,22656
2016-07-28T11:47:22.036Z,24256
2016-07-28T11:48:22.280Z,25504
2016-07-28T11:49:22.111Z,26176
2016-07-28T11:50:21.648Z,26432
2016-07-28T11:51:21.717Z,26752
2016-07-28T11:52:21.664Z,27488
2016-07-28T11:53:21.667Z,27744
2016-07-28T11:54:21.695Z,27296
2016-07-28T11:55:21.687Z,25920
2016-07-28T11:56:21.689Z,24448
2016-07-28T11:57:21.701Z,23776
2016-07-28T11:58:21.712Z,23552
2016-07-28T11:59:21.711Z,23264
2016-07-28T12:00:21.730Z,22944
2016-07-28T12:01:21.734Z,22848
2016-07-28T12:02:21.748Z,22752
2016-07-28T12:03:21.743Z,22912
2016-07-28T12:04:21.761Z,24512
2016-07-28T12:05:21.766Z,27392
2016-07-28T12:06:21.773Z,28416
2016-07-28T12:07:21.799Z,27744
2016-07-28T12:08:21.798Z,26816
2016-07-28T12:09:21.789Z,25536
2016-07-28T12:10:22.504Z,24448
2016-07-28T12:11:22.086Z,23744
2016-07-28T12:12:21.825Z,23328
2016-07-28T12:13:22.535Z,23392
2016-07-28T12:14:21.839Z,24000
2016-07-28T12:16:22.759Z,25024
2016-07-28T12:17:36.987Z,25472
2016-07-28T12:18:21.988Z,25440
2016-07-28T12:19:22.141Z,24672
2016-07-28T12:20:21.994Z,23648
2016-07-28T12:21:21.908Z,22656
2016-07-28T12:22:21.912Z,21888
2016-07-28T12:23:21.935Z,21600
2016-07-28T12:24:38.595Z,22656
2016-07-28T12:25:22.249Z,23680
2016-07-28T12:26:22.268Z,24992
2016-07-28T12:27:36.882Z,25600
2016-07-28T12:28:22.874Z,25408
2016-07-28T12:29:22.428Z,24672
2016-07-28T12:30:21.980Z,23744
2016-07-28T12:31:22.000Z,22848
2016-07-28T12:32:21.997Z,22016
2016-07-28T12:33:22.028Z,21248
2016-07-28T12:34:22.022Z,21312
2016-07-28T12:36:22.740Z,22304
2016-07-28T12:37:22.743Z,22944
2016-07-28T12:38:22.059Z,23424
2016-07-28T12:39:22.076Z,23584
2016-07-28T12:40:22.083Z,22976
2016-07-28T12:41:22.080Z,22208
2016-07-28T12:42:22.102Z,21408
2016-07-28T12:43:22.107Z,20800
2016-07-28T12:44:22.123Z,20256
2016-07-28T12:45:22.132Z,19776
2016-07-28T12:46:22.131Z,19616
2016-07-28T12:47:22.147Z,19776
2016-07-28T12:48:22.155Z,19872
2016-07-28T12:49:22.166Z,20032
2016-07-28T12:50:22.172Z,19968
2016-07-28T12:51:22.986Z,19648
2016-07-28T12:52:24.442Z,19424
2016-07-28T12:53:22.298Z,19520
2016-07-28T12:54:23.926Z,19616
2016-07-28T12:55:23.815Z,19584
2016-07-28T12:56:22.508Z,19360
2016-07-28T12:57:22.236Z,19168
2016-07-28T12:58:22.240Z,19008
2016-07-28T12:59:22.259Z,18688
2016-07-28T13:00:22.963Z,19616
2016-07-28T13:01:24.126Z,19232
2016-07-28T13:03:23.510Z,18816
2016-07-28T13:04:23.901Z,19008
2016-07-28T13:05:22.914Z,19520
2016-07-28T13:06:22.321Z,20032
2016-07-28T13:07:22.429Z,20576
2016-07-28T13:08:22.350Z,21024
2016-07-28T13:09:22.335Z,21152
2016-07-28T13:10:22.350Z,21184
2016-07-28T13:11:22.355Z,21312
2016-07-28T13:12:22.378Z,21440
2016-07-28T13:13:22.392Z,21440
2016-07-28T13:14:22.380Z,21088
2016-07-28T13:15:22.391Z,20832
2016-07-28T13:16:22.408Z,20640
2016-07-28T13:17:22.416Z,20608
2016-07-28T13:18:22.423Z,20928
2016-07-28T13:19:22.426Z,21184
2016-07-28T13:20:22.443Z,21312
2016-07-28T13:21:22.453Z,21376
2016-07-28T13:22:22.461Z,21536
2016-07-28T13:23:22.467Z,21728
2016-07-28T13:24:22.476Z,21728
2016-07-28T13:25:22.490Z,21600
2016-07-28T13:26:22.490Z,21312
2016-07-28T13:27:22.505Z,21184
2016-07-28T13:28:22.508Z,20960
2016-07-28T13:29:22.532Z,20512
2016-07-28T13:30:22.526Z,19424
2016-07-28T13:31:22.535Z,18912
2016-07-28T13:32:22.545Z,18592
2016-07-28T13:33:23.800Z,18528
2016-07-28T13:34:22.808Z,18784
2016-07-28T13:35:23.573Z,19104
2016-07-28T13:36:38.855Z,19520
2016-07-28T13:37:22.837Z,19648
2016-07-28T13:38:22.591Z,19712
2016-07-28T13:39:22.613Z,19776
2016-07-28T13:40:22.609Z,19872
2016-07-28T13:41:22.626Z,19712
2016-07-28T13:42:22.628Z,19584
2016-07-28T13:43:37.557Z,18496
2016-07-28T13:46:22.920Z,16864
2016-07-28T13:47:23.690Z,16736
2016-07-28T13:48:22.888Z,16736
2016-07-28T13:49:22.695Z,16608